Time;durP1;ratioP1;P1;durP2;ratioP2;P2;SDS_P1;SDS_P2;PMS_P1;PMS_P2;Temp;Humidity;BMP_temperature;BMP_pressure;BME280_temperature;BME280_humidity;BME280_pressure;Samples;Min_cycle;Max_cycle;Signal;HPM_P1;HPM_P2
2021/10/06 00:03:37;;;;;;;1.57;1.10;;;17.40;78.20;;;;;;10435029;28;20552;-64
2021/10/06 00:08:59;;;;;;;1.10;1.00;;;17.30;78.20;;;;;;10411988;28;20217;-63
2021/10/06 00:14:22;;;;;;;1.00;0.90;;;17.30;78.20;;;;;;10445040;22;21496;-65
2021/10/06 00:19:45;;;;;;;1.20;0.97;;;17.40;78.30;;;;;;10480002;28;20204;-65
2021/10/06 00:25:08;;;;;;;1.03;1.00;;;17.40;78.30;;;;;;10490741;28;20216;-65
2021/10/06 00:30:30;;;;;;;1.37;1.20;;;17.40;78.30;;;;;;10457702;28;20191;-65
2021/10/06 00:35:54;;;;;;;1.60;1.17;;;17.40;78.30;;;;;;10492985;28;20212;-65
2021/10/06 00:41:16;;;;;;;0.80;0.80;;;17.40;78.30;;;;;;10490532;28;20188;-65
2021/10/06 00:46:38;;;;;;;1.20;1.10;;;17.30;78.20;;;;;;10477343;28;20220;-65
2021/10/06 00:52:02;;;;;;;1.53;1.17;;;17.40;78.30;;;;;;10451388;28;20703;-66
2021/10/06 00:57:24;;;;;;;1.10;1.00;;;17.40;78.30;;;;;;10452650;28;20219;-66
2021/10/06 01:02:46;;;;;;;3.43;1.10;;;17.30;78.20;;;;;;10468421;28;20252;-65
2021/10/06 01:08:10;;;;;;;1.37;1.07;;;17.30;78.20;;;;;;10453277;28;20208;-65
2021/10/06 01:13:32;;;;;;;0.80;0.80;;;17.30;78.20;;;;;;10466856;28;20691;-65
2021/10/06 01:18:54;;;;;;;1.00;0.90;;;17.40;78.30;;;;;;10444359;28;20211;-65
2021/10/06 01:24:19;;;;;;;0.93;0.90;;;17.40;78.30;;;;;;10448155;28;20623;-65
2021/10/06 01:29:41;;;;;;;0.90;0.90;;;17.30;78.20;;;;;;10488749;28;20192;-63
2021/10/06 01:35:05;;;;;;;0.93;0.80;;;17.30;78.20;;;;;;10487132;28;20212;-65
2021/10/06 01:40:28;;;;;;;1.60;1.10;;;17.30;78.20;;;;;;10471273;28;20188;-65
2021/10/06 01:45:51;;;;;;;1.70;1.30;;;17.30;78.20;;;;;;10477671;28;20612;-65
2021/10/06 01:51:13;;;;;;;1.23;1.10;;;17.30;78.20;;;;;;10448878;28;20464;-65
2021/10/06 01:56:36;;;;;;;2.07;1.07;;;17.30;78.20;;;;;;10485500;28;20568;-65
2021/10/06 02:01:58;;;;;;;2.30;1.13;;;17.30;78.20;;;;;;10473673;28;20212;-65
2021/10/06 02:07:20;;;;;;;0.83;0.80;;;17.30;78.20;;;;;;10461579;28;20228;-65
2021/10/06 02:12:44;;;;;;;1.83;0.90;;;17.30;78.20;;;;;;10481830;28;20212;-65
2021/10/06 02:18:06;;;;;;;2.07;1.17;;;17.30;78.10;;;;;;10464227;28;20594;-65
2021/10/06 02:23:28;;;;;;;1.67;0.90;;;17.30;78.10;;;;;;10429091;28;20221;-66
2021/10/06 02:28:51;;;;;;;0.93;0.83;;;17.30;78.20;;;;;;10457153;28;20221;-65
2021/10/06 02:34:14;;;;;;;1.03;0.83;;;17.30;78.10;;;;;;10472056;28;20209;-65
2021/10/06 02:39:36;;;;;;;1.03;0.97;;;17.30;78.10;;;;;;10497386;28;20193;-65
2021/10/06 02:44:59;;;;;;;1.23;0.97;;;17.30;78.10;;;;;;10496950;28;20733;-65
2021/10/06 02:50:24;;;;;;;0.90;0.80;;;17.30;78.10;;;;;;10493253;28;20207;-65
2021/10/06 02:55:47;;;;;;;1.07;0.80;;;17.30;78.10;;;;;;10463225;28;20217;-65
2021/10/06 03:01:10;;;;;;;1.63;0.80;;;17.30;78.70;;;;;;10459205;28;20189;-65
2021/10/06 03:06:32;;;;;;;1.50;1.00;;;17.30;78.10;;;;;;10456649;28;20231;-65
2021/10/06 03:11:54;;;;;;;1.27;0.90;;;17.30;78.00;;;;;;10455670;28;20189;-65
2021/10/06 03:17:18;;;;;;;1.87;0.90;;;17.30;78.10;;;;;;10427254;28;20676;-65
2021/10/06 03:22:40;;;;;;;1.00;0.90;;;17.30;78.10;;;;;;10473478;28;20192;-64
2021/10/06 03:28:02;;;;;;;1.57;0.80;;;17.30;78.10;;;;;;10496321;28;20696;-65
2021/10/06 03:33:26;;;;;;;2.50;0.80;;;17.30;78.10;;;;;;10492231;28;20199;-65
2021/10/06 03:38:48;;;;;;;1.33;0.80;;;17.30;78.20;;;;;;10458289;28;20213;-65
2021/10/06 03:44:10;;;;;;;0.87;0.70;;;17.30;78.10;;;;;;10487441;28;20216;-65
2021/10/06 03:49:33;;;;;;;1.07;0.97;;;17.30;78.10;;;;;;10462913;28;20197;-65
2021/10/06 03:54:55;;;;;;;1.63;0.80;;;17.30;78.10;;;;;;10451358;28;20220;-65
2021/10/06 04:00:18;;;;;;;1.17;0.77;;;17.30;78.10;;;;;;10463270;28;20263;-65
2021/10/06 04:05:42;;;;;;;1.80;0.90;;;17.30;78.00;;;;;;10465479;28;20605;-62
2021/10/06 04:11:04;;;;;;;1.43;0.87;;;17.30;78.10;;;;;;10442040;28;20217;-65
2021/10/06 04:16:26;;;;;;;1.07;0.67;;;17.30;78.10;;;;;;10455053;28;20224;-65
2021/10/06 04:21:49;;;;;;;1.90;0.80;;;17.30;78.10;;;;;;10494589;28;20196;-65
2021/10/06 04:27:12;;;;;;;1.47;0.80;;;17.30;78.10;;;;;;10483021;28;20224;-65
2021/10/06 04:32:34;;;;;;;0.80;0.80;;;17.30;78.10;;;;;;10484471;28;20198;-66
2021/10/06 04:37:57;;;;;;;1.63;0.70;;;17.30;78.10;;;;;;10465336;28;20216;-66
2021/10/06 04:43:19;;;;;;;0.77;0.63;;;17.30;78.00;;;;;;10491848;28;20199;-65
2021/10/06 04:48:42;;;;;;;0.67;0.63;;;17.30;78.00;;;;;;10491301;28;20215;-63
2021/10/06 04:54:05;;;;;;;1.20;0.80;;;17.30;78.00;;;;;;10481760;28;20205;-65
2021/10/06 04:59:27;;;;;;;0.80;0.80;;;17.30;78.00;;;;;;10456552;28;20197;-65
2021/10/06 05:04:49;;;;;;;1.33;0.80;;;17.30;78.00;;;;;;10453604;28;20232;-65
2021/10/06 05:10:12;;;;;;;0.90;0.90;;;17.30;77.90;;;;;;10435839;28;20197;-65
2021/10/06 05:15:35;;;;;;;0.70;0.70;;;17.30;78.00;;;;;;10475241;28;20223;-65
2021/10/06 05:20:57;;;;;;;1.40;1.00;;;17.30;77.90;;;;;;10484020;28;20311;-67
2021/10/06 05:26:20;;;;;;;1.30;0.73;;;17.20;77.90;;;;;;10451151;28;20217;-65
2021/10/06 05:31:42;;;;;;;1.43;0.70;;;17.30;77.90;;;;;;10451184;28;20197;-65
2021/10/06 05:37:04;;;;;;;0.60;0.60;;;17.20;77.80;;;;;;10451041;28;20213;-65
2021/10/06 05:42:28;;;;;;;1.77;0.93;;;17.20;77.90;;;;;;10450287;28;20196;-65
2021/10/06 05:47:50;;;;;;;1.87;0.77;;;17.30;77.90;;;;;;10455314;28;20239;-65
2021/10/06 05:53:12;;;;;;;1.30;0.80;;;17.20;77.80;;;;;;10429345;28;20579;-65
2021/10/06 05:58:35;;;;;;;1.20;0.77;;;17.20;77.80;;;;;;10449961;28;20220;-66
2021/10/06 06:03:58;;;;;;;1.93;0.90;;;17.20;77.80;;;;;;10468655;28;20243;-67
2021/10/06 06:09:21;;;;;;;1.50;0.80;;;17.20;77.80;;;;;;10462872;28;20262;-67
2021/10/06 06:14:44;;;;;;;1.27;0.63;;;17.20;77.80;;;;;;10464394;22;20304;-68
2021/10/06 06:20:10;;;;;;;2.60;0.97;;;17.20;77.80;;;;;;10395571;28;20198;-69
2021/10/06 06:25:32;;;;;;;2.20;1.00;;;17.20;77.30;;;;;;10384656;28;20259;-69
2021/10/06 06:30:55;;;;;;;2.77;0.80;;;17.20;77.10;;;;;;10331932;28;20345;-69
2021/10/06 06:36:17;;;;;;;2.60;1.10;;;17.20;76.90;;;;;;10334752;28;20219;-68
2021/10/06 06:41:40;;;;;;;1.50;0.90;;;17.20;76.90;;;;;;10334636;28;20191;-68
2021/10/06 06:47:03;;;;;;;2.70;1.37;;;17.20;76.80;;;;;;10346866;28;20245;-68
2021/10/06 06:52:25;;;;;;;2.87;1.00;;;17.20;76.80;;;;;;10373982;28;20199;-67
2021/10/06 06:57:48;;;;;;;3.03;1.00;;;17.10;76.50;;;;;;10336272;28;20219;-67
2021/10/06 07:03:11;;;;;;;1.87;1.00;;;17.20;76.50;;;;;;10332140;28;20229;-68
2021/10/06 07:08:33;;;;;;;2.37;1.07;;;17.10;76.40;;;;;;10336352;28;20222;-69
2021/10/06 07:13:55;;;;;;;2.90;1.27;;;17.20;76.30;;;;;;10342235;28;20298;-68
2021/10/06 07:19:19;;;;;;;2.77;1.00;;;17.10;76.10;;;;;;10347236;28;20301;-68
2021/10/06 07:24:41;;;;;;;2.13;0.90;;;17.20;76.20;;;;;;10364339;28;20245;-69
2021/10/06 07:30:04;;;;;;;3.00;1.10;;;17.10;76.10;;;;;;10358947;28;20210;-69
2021/10/06 07:35:28;;;;;;;2.10;0.90;;;17.20;75.60;;;;;;10347193;28;20225;-68
2021/10/06 07:40:50;;;;;;;2.10;1.00;;;17.30;75.00;;;;;;10372761;28;20198;-69
2021/10/06 07:46:13;;;;;;;2.40;0.83;;;17.30;74.90;;;;;;10344329;28;20218;-69
2021/10/06 07:51:36;;;;;;;1.23;0.87;;;17.30;75.00;;;;;;10370492;28;20765;-69
2021/10/06 07:56:58;;;;;;;1.40;0.90;;;17.40;75.20;;;;;;10351162;28;20214;-69
2021/10/06 08:02:21;;;;;;;4.17;1.10;;;17.40;75.90;;;;;;10364711;28;20732;-69
2021/10/06 08:07:44;;;;;;;2.03;0.80;;;17.40;75.40;;;;;;10369896;28;20693;-68
2021/10/06 08:13:06;;;;;;;2.57;0.97;;;17.50;75.60;;;;;;10337712;28;20211;-69
2021/10/06 08:18:28;;;;;;;1.80;0.80;;;17.50;75.70;;;;;;10336495;28;20300;-69
2021/10/06 08:23:52;;;;;;;0.80;0.70;;;17.50;75.80;;;;;;10368760;28;20194;-69
2021/10/06 08:29:14;;;;;;;1.67;0.87;;;17.50;75.90;;;;;;10359023;28;20213;-69
2021/10/06 08:34:36;;;;;;;2.90;0.90;;;17.50;75.90;;;;;;10360572;28;20202;-69
2021/10/06 08:39:59;;;;;;;2.83;0.90;;;17.50;75.90;;;;;;10346122;28;20729;-69
2021/10/06 08:45:21;;;;;;;3.37;0.90;;;17.50;76.00;;;;;;10370821;28;20222;-69
2021/10/06 08:50:44;;;;;;;1.07;0.80;;;17.60;75.90;;;;;;10330001;28;20200;-69
2021/10/06 08:56:07;;;;;;;1.30;0.67;;;17.60;76.10;;;;;;10350989;28;20582;-69
2021/10/06 09:01:31;;;;;;;1.43;0.80;;;17.60;76.20;;;;;;10358081;28;20202;-69
2021/10/06 09:07:00;;;;;;;1.70;0.73;;;17.60;76.40;;;;;;10336448;28;20227;-69
2021/10/06 09:12:25;;;;;;;1.20;0.73;;;17.60;76.40;;;;;;10331102;28;20575;-69
2021/10/06 09:17:53;;;;;;;1.67;0.67;;;17.60;76.50;;;;;;10328358;28;20226;-67
2021/10/06 09:23:18;;;;;;;1.67;0.70;;;17.60;76.30;;;;;;10327248;28;20217;-68
2021/10/06 09:28:43;;;;;;;1.20;0.60;;;17.60;76.60;;;;;;10349787;28;20233;-68
2021/10/06 09:34:09;;;;;;;0.80;0.80;;;17.50;76.80;;;;;;10364755;28;20202;-68
2021/10/06 09:39:31;;;;;;;1.23;0.70;;;17.50;77.10;;;;;;10362875;28;20682;-67
2021/10/06 09:44:56;;;;;;;1.70;0.70;;;17.40;77.20;;;;;;10366385;28;20759;-67
2021/10/06 09:50:23;;;;;;;1.80;0.70;;;17.40;77.40;;;;;;10330884;28;20198;-67
2021/10/06 09:55:47;;;;;;;2.00;0.73;;;17.40;77.50;;;;;;10350298;28;20220;-68
2021/10/06 10:01:12;;;;;;;1.83;0.70;;;17.40;77.60;;;;;;10332469;28;20689;-68
2021/10/06 10:06:35;;;;;;;1.37;0.60;;;17.40;77.70;;;;;;10346882;28;20226;-67
2021/10/06 10:11:57;;;;;;;1.23;0.70;;;17.30;78.10;;;;;;10326401;28;20203;-67
2021/10/06 10:17:22;;;;;;;1.00;0.70;;;17.30;77.70;;;;;;10336968;28;20351;-67
2021/10/06 10:22:46;;;;;;;2.77;0.63;;;17.30;77.70;;;;;;10328485;28;20210;-68
2021/10/06 10:28:11;;;;;;;2.30;0.73;;;17.30;77.80;;;;;;10330639;28;20234;-68
2021/10/06 10:33:40;;;;;;;1.10;0.70;;;17.30;77.90;;;;;;10343372;28;20207;-70
2021/10/06 10:39:05;;;;;;;2.33;0.60;;;17.30;77.60;;;;;;10336646;28;20214;-70
2021/10/06 10:44:33;;;;;;;1.33;0.60;;;17.30;77.70;;;;;;10333239;28;20206;-70
2021/10/06 10:49:56;;;;;;;0.70;0.60;;;17.30;77.40;;;;;;10361485;28;20198;-70
2021/10/06 10:55:45;;;;;;;1.23;0.70;;;17.40;77.20;;;;;;10348924;28;20609;-70
2021/10/06 11:01:13;;;;;;;1.10;0.60;;;17.40;77.30;;;;;;10340275;28;20249;-66
2021/10/06 11:06:38;;;;;;;1.03;0.73;;;17.40;77.60;;;;;;10372655;28;20225;-66
2021/10/06 11:12:28;;;;;;;1.23;0.70;;;17.40;77.40;;;;;;10361078;28;20199;-65
2021/10/06 11:18:16;;;;;;;2.60;0.70;;;17.40;77.30;;;;;;10332477;28;20223;-67
2021/10/06 11:23:45;;;;;;;1.50;0.67;;;17.40;77.40;;;;;;10333432;28;20195;-66
2021/10/06 11:29:08;;;;;;;2.80;0.70;;;17.40;77.50;;;;;;10367117;28;20226;-65
2021/10/06 11:34:30;;;;;;;1.07;0.70;;;17.40;77.40;;;;;;10368148;28;20194;-66
2021/10/06 11:39:54;;;;;;;1.03;0.80;;;17.40;77.30;;;;;;10339030;28;20195;-66
2021/10/06 11:45:18;;;;;;;2.00;0.80;;;17.40;77.40;;;;;;10331566;28;20227;-66
2021/10/06 11:50:41;;;;;;;2.77;0.70;;;17.40;77.50;;;;;;10331877;28;20225;-66
2021/10/06 11:56:06;;;;;;;2.50;0.70;;;17.40;77.50;;;;;;10350559;28;20246;-66
2021/10/06 12:01:28;;;;;;;1.13;0.60;;;17.40;77.50;;;;;;10362322;28;20200;-66
2021/10/06 12:06:55;;;;;;;0.73;0.63;;;17.40;77.40;;;;;;10370502;28;20713;-68
2021/10/06 12:12:21;;;;;;;2.37;0.60;;;17.40;77.50;;;;;;10369810;28;20225;-68
2021/10/06 12:17:45;;;;;;;2.63;0.60;;;17.40;77.50;;;;;;10441711;22;20225;-64
2021/10/06 12:23:07;;;;;;;1.33;0.60;;;17.40;77.30;;;;;;10450355;28;20555;-64
2021/10/06 12:28:50;;;;;;;1.17;0.57;;;17.30;77.40;;;;;;10456453;28;20248;-64
2021/10/06 12:34:14;;;;;;;1.33;0.70;;;17.30;77.60;;;;;;10484224;28;20199;-63
2021/10/06 12:39:36;;;;;;;1.00;0.83;;;17.30;77.70;;;;;;10490787;28;20208;-64
2021/10/06 12:45:11;;;;;;;2.07;0.60;;;17.30;77.70;;;;;;10481924;28;20197;-64
2021/10/06 12:50:33;;;;;;;1.20;0.53;;;17.30;77.60;;;;;;10450542;28;20213;-66
2021/10/06 12:55:55;;;;;;;0.50;0.50;;;17.30;77.70;;;;;;10489275;28;20192;-64
2021/10/06 13:01:19;;;;;;;1.17;0.77;;;17.30;77.70;;;;;;10490542;28;20708;-63
2021/10/06 13:06:42;;;;;;;1.77;0.60;;;17.30;77.70;;;;;;10488909;28;20242;-64
2021/10/06 13:12:07;;;;;;;1.60;0.70;;;17.30;77.70;;;;;;10481521;28;20646;-64
2021/10/06 13:17:34;;;;;;;1.17;0.57;;;17.30;77.60;;;;;;10471684;28;20221;-64
2021/10/06 13:22:56;;;;;;;0.73;0.60;;;17.30;77.50;;;;;;10463617;28;20468;-66
2021/10/06 13:28:19;;;;;;;1.17;0.50;;;17.30;77.50;;;;;;10477665;28;20597;-62
2021/10/06 13:33:45;;;;;;;0.77;0.50;;;17.40;77.40;;;;;;10488792;28;20569;-63
2021/10/06 13:39:08;;;;;;;0.83;0.60;;;17.30;77.30;;;;;;10448111;28;20803;-65
2021/10/06 13:44:30;;;;;;;0.70;0.50;;;17.40;77.40;;;;;;10467922;28;20193;-64
2021/10/06 13:49:53;;;;;;;2.23;0.50;;;17.40;77.50;;;;;;10453902;28;20212;-64
2021/10/06 13:55:16;;;;;;;1.20;0.77;;;17.40;77.50;;;;;;10475129;28;20200;-65
2021/10/06 14:00:38;;;;;;;1.10;0.60;;;17.40;77.50;;;;;;10448643;28;20213;-66
2021/10/06 14:06:01;;;;;;;0.77;0.70;;;17.30;77.40;;;;;;10451452;28;20566;-65
2021/10/06 14:11:24;;;;;;;3.27;0.67;;;17.30;77.50;;;;;;10454582;28;20543;-66
2021/10/06 14:16:46;;;;;;;2.50;0.80;;;17.30;77.50;;;;;;10482313;28;20216;-65
2021/10/06 14:22:10;;;;;;;0.93;0.70;;;17.30;77.40;;;;;;10472091;28;20283;-65
2021/10/06 14:27:33;;;;;;;2.03;0.83;;;17.30;77.40;;;;;;10469222;28;20253;-63
2021/10/06 14:32:55;;;;;;;2.97;1.17;;;17.40;77.50;;;;;;10484676;28;20420;-62
2021/10/06 14:38:19;;;;;;;14.18;3.35;;;17.80;75.20;;;;;;10455001;28;20416;-61
2021/10/06 14:43:41;;;;;;;14.73;3.17;;;18.40;73.20;;;;;;10448635;28;20193;-66
2021/10/06 14:49:03;;;;;;;13.33;3.60;;;18.10;73.80;;;;;;10445391;28;20217;-63
2021/10/06 14:54:31;;;;;;;12.00;3.20;;;17.90;73.50;;;;;;10463300;28;20192;-65
2021/10/06 14:59:53;;;;;;;14.03;2.97;;;17.80;74.70;;;;;;10496031;28;20238;-65
2021/10/06 15:05:16;;;;;;;18.40;3.40;;;17.80;75.20;;;;;;10498082;28;20787;-64
2021/10/06 15:10:39;;;;;;;11.00;2.30;;;18.30;73.50;;;;;;10490382;28;20920;-61
2021/10/06 15:16:01;;;;;;;6.50;2.53;;;18.00;74.00;;;;;;10454321;28;20425;-63
2021/10/06 15:21:23;;;;;;;6.47;1.77;;;18.00;74.40;;;;;;10452179;28;20213;-62
2021/10/06 15:26:47;;;;;;;5.67;1.37;;;17.90;74.80;;;;;;10451668;28;20817;-63
2021/10/06 15:32:10;;;;;;;4.50;1.50;;;17.80;75.00;;;;;;10459456;28;20201;-63
2021/10/06 15:37:32;;;;;;;4.90;1.60;;;17.80;75.00;;;;;;10460423;28;20563;-62
2021/10/06 15:42:56;;;;;;;4.90;1.50;;;17.80;75.20;;;;;;10490189;28;20196;-63
2021/10/06 15:48:18;;;;;;;4.40;1.17;;;17.70;75.10;;;;;;10463104;28;20227;-62
2021/10/06 15:53:40;;;;;;;5.93;1.33;;;17.70;74.90;;;;;;10455121;28;20209;-62
2021/10/06 15:59:04;;;;;;;3.70;1.10;;;17.70;75.10;;;;;;10490436;28;20225;-63
2021/10/06 16:04:26;;;;;;;3.27;1.23;;;17.70;75.20;;;;;;10488739;28;20193;-63
2021/10/06 16:09:48;;;;;;;3.53;1.20;;;17.70;74.90;;;;;;10486038;28;20783;-62
2021/10/06 16:15:13;;;;;;;1.57;0.90;;;17.70;75.00;;;;;;10492228;28;20189;-63
2021/10/06 16:20:35;;;;;;;2.60;1.13;;;17.70;75.00;;;;;;10453437;28;20416;-61
2021/10/06 16:25:57;;;;;;;3.03;0.67;;;18.20;72.60;;;;;;10486307;28;20704;-61
2021/10/06 16:31:21;;;;;;;1.97;0.90;;;17.90;74.20;;;;;;10486885;28;20212;-62
2021/10/06 16:36:45;;;;;;;1.02;0.70;;;17.80;74.60;;;;;;10464724;28;20421;-65
2021/10/06 16:42:07;;;;;;;3.13;1.07;;;17.70;75.00;;;;;;10451532;28;20197;-62
2021/10/06 16:47:31;;;;;;;2.13;1.23;;;17.60;75.10;;;;;;10458446;28;20596;-61
2021/10/06 16:52:53;;;;;;;1.40;0.77;;;17.60;75.10;;;;;;10448834;28;20197;-60
2021/10/06 16:58:16;;;;;;;1.70;0.97;;;17.50;75.00;;;;;;10491537;28;20208;-61
2021/10/06 17:03:39;;;;;;;1.67;0.73;;;17.60;74.90;;;;;;10490064;28;20593;-61
2021/10/06 17:09:01;;;;;;;2.33;1.10;;;17.60;75.00;;;;;;10488540;28;20590;-61
2021/10/06 17:14:24;;;;;;;1.43;0.83;;;17.60;74.90;;;;;;10484282;28;20193;-59
2021/10/06 17:19:47;;;;;;;1.73;0.70;;;17.50;75.50;;;;;;10486030;28;20235;-60
2021/10/06 17:25:10;;;;;;;2.53;1.07;;;17.50;75.60;;;;;;10451275;28;20681;-60
2021/10/06 17:30:33;;;;;;;1.07;0.77;;;17.50;75.60;;;;;;10449593;28;20221;-61
2021/10/06 17:35:56;;;;;;;3.37;0.80;;;17.50;75.70;;;;;;10469622;28;20242;-60
2021/10/06 17:41:19;;;;;;;0.60;0.50;;;17.50;75.60;;;;;;10494292;28;20216;-61
2021/10/06 17:46:41;;;;;;;1.57;0.97;;;17.50;75.60;;;;;;10480287;28;20547;-64
2021/10/06 17:52:05;;;;;;;2.13;0.80;;;17.50;75.60;;;;;;10491810;28;20196;-61
2021/10/06 17:57:27;;;;;;;1.23;0.90;;;17.50;75.50;;;;;;10479983;28;20209;-66
2021/10/06 18:02:51;;;;;;;1.27;0.90;;;17.50;75.70;;;;;;10467942;28;20212;-63
2021/10/06 18:08:14;;;;;;;2.73;0.80;;;17.50;75.80;;;;;;10458200;28;20225;-62
2021/10/06 18:13:37;;;;;;;1.57;0.80;;;17.50;75.90;;;;;;10456303;28;20193;-60
2021/10/06 18:18:59;;;;;;;1.97;0.77;;;17.40;76.30;;;;;;10464211;22;20596;-69
2021/10/06 18:24:22;;;;;;;2.20;0.80;;;17.50;75.70;;;;;;10426583;28;20206;-70
2021/10/06 18:29:47;;;;;;;1.30;0.83;;;17.40;75.70;;;;;;10417609;28;20225;-69
2021/10/06 18:35:09;;;;;;;0.97;0.63;;;17.40;75.70;;;;;;10437112;28;20283;-69
2021/10/06 18:40:34;;;;;;;1.83;1.00;;;17.40;75.80;;;;;;10438000;28;20217;-69
2021/10/06 18:45:57;;;;;;;1.63;1.00;;;17.40;75.90;;;;;;10441712;28;20225;-69
2021/10/06 18:51:19;;;;;;;1.17;0.70;;;17.40;75.90;;;;;;10432104;28;20208;-70
2021/10/06 18:56:43;;;;;;;1.00;0.70;;;17.40;76.00;;;;;;10439829;28;20209;-69
2021/10/06 19:02:06;;;;;;;1.07;0.70;;;17.40;76.00;;;;;;10436848;28;20197;-70
2021/10/06 19:07:28;;;;;;;0.90;0.77;;;17.40;76.10;;;;;;10439175;28;20218;-71
2021/10/06 19:12:51;;;;;;;1.20;0.87;;;17.40;76.10;;;;;;10441046;28;20226;-69
2021/10/06 19:18:14;;;;;;;1.23;0.70;;;17.40;76.10;;;;;;10438472;28;20218;-69
2021/10/06 19:23:36;;;;;;;0.97;0.67;;;17.40;76.10;;;;;;10440352;28;20200;-69
2021/10/06 19:29:00;;;;;;;1.73;0.70;;;17.40;76.10;;;;;;10437259;28;20220;-69
2021/10/06 19:34:28;;;;;;;2.00;1.00;;;17.40;76.20;;;;;;10439970;28;20565;-69
2021/10/06 19:39:51;;;;;;;1.20;0.73;;;17.40;76.20;;;;;;10441513;28;20732;-70
2021/10/06 19:45:16;;;;;;;0.93;0.70;;;17.40;76.10;;;;;;10440010;28;20197;-69
2021/10/06 19:50:38;;;;;;;1.30;0.60;;;17.40;76.20;;;;;;10439999;28;20230;-69
2021/10/06 19:56:01;;;;;;;0.60;0.60;;;17.40;76.20;;;;;;10440736;28;20233;-69
2021/10/06 20:01:24;;;;;;;1.07;0.73;;;17.40;76.20;;;;;;10436335;28;20189;-69
2021/10/06 20:06:46;;;;;;;1.10;0.60;;;17.40;76.20;;;;;;10436573;28;20210;-69
2021/10/06 20:12:09;;;;;;;1.70;0.80;;;17.40;76.30;;;;;;10439852;28;20189;-69
2021/10/06 20:17:32;;;;;;;1.07;0.70;;;17.40;76.40;;;;;;10436814;28;20210;-69
2021/10/06 20:22:55;;;;;;;1.63;0.80;;;17.40;76.40;;;;;;10436027;28;20549;-69
2021/10/06 20:28:17;;;;;;;0.80;0.70;;;17.40;76.60;;;;;;10437871;28;20735;-69
2021/10/06 20:33:47;;;;;;;1.07;0.80;;;17.40;76.60;;;;;;10438459;28;20189;-69
2021/10/06 20:39:10;;;;;;;0.80;0.60;;;17.40;76.40;;;;;;10437746;28;20586;-71
2021/10/06 20:44:32;;;;;;;1.90;0.70;;;17.40;76.50;;;;;;10445212;28;20672;-70
2021/10/06 20:49:56;;;;;;;1.10;0.80;;;17.40;76.50;;;;;;10438082;28;20607;-70
2021/10/06 20:55:19;;;;;;;1.87;0.83;;;17.40;76.50;;;;;;10441012;28;20194;-70
2021/10/06 21:00:45;;;;;;;0.90;0.70;;;17.40;76.60;;;;;;10415927;28;20194;-70
2021/10/06 21:06:09;;;;;;;0.63;0.60;;;17.40;76.50;;;;;;10443093;28;20216;-70
2021/10/06 21:11:31;;;;;;;1.17;0.80;;;17.30;76.50;;;;;;10416179;28;20209;-70
2021/10/06 21:16:53;;;;;;;1.30;0.73;;;17.30;76.50;;;;;;10411542;28;20232;-70
2021/10/06 21:22:17;;;;;;;0.83;0.60;;;17.40;76.60;;;;;;10443415;28;20215;-70
2021/10/06 21:27:40;;;;;;;1.60;0.60;;;17.30;76.60;;;;;;10450596;28;20314;-70
2021/10/06 21:33:02;;;;;;;1.13;0.53;;;17.30;76.60;;;;;;10454991;28;20201;-70
2021/10/06 21:38:25;;;;;;;1.23;0.60;;;17.40;76.70;;;;;;10454365;28;20217;-70
2021/10/06 21:43:47;;;;;;;1.23;0.70;;;17.40;76.70;;;;;;10455100;28;20197;-70
2021/10/06 21:49:09;;;;;;;3.03;0.80;;;17.30;76.60;;;;;;10444378;28;20217;-70
2021/10/06 21:54:33;;;;;;;1.10;0.50;;;17.30;76.70;;;;;;10425312;28;20200;-70
2021/10/06 21:59:55;;;;;;;1.17;0.60;;;17.30;76.70;;;;;;10456072;28;20209;-70
2021/10/06 22:05:18;;;;;;;0.70;0.60;;;17.30;76.70;;;;;;10459368;28;20197;-70
2021/10/06 22:10:42;;;;;;;1.07;0.57;;;17.30;76.80;;;;;;10457970;28;20235;-70
2021/10/06 22:16:05;;;;;;;0.80;0.60;;;17.30;76.80;;;;;;10447736;28;20214;-70
2021/10/06 22:21:27;;;;;;;0.60;0.60;;;17.30;76.70;;;;;;10433081;28;20186;-71
2021/10/06 22:26:50;;;;;;;1.93;0.60;;;17.30;76.70;;;;;;10419723;28;20712;-70
2021/10/06 22:32:12;;;;;;;1.70;0.90;;;17.30;76.60;;;;;;10425017;28;20558;-70
2021/10/06 22:37:35;;;;;;;0.90;0.67;;;17.30;76.60;;;;;;10424755;28;20225;-70
2021/10/06 22:42:58;;;;;;;1.23;0.70;;;17.30;76.70;;;;;;10422534;28;20264;-70
2021/10/06 22:48:20;;;;;;;0.97;0.70;;;17.30;76.70;;;;;;10446595;28;20212;-70
2021/10/06 22:53:43;;;;;;;0.80;0.60;;;17.30;76.70;;;;;;10451000;28;20684;-70
2021/10/06 22:59:06;;;;;;;0.80;0.70;;;17.30;76.70;;;;;;10444984;28;20212;-70
2021/10/06 23:04:28;;;;;;;1.17;0.50;;;17.30;76.80;;;;;;10451331;28;20686;-70
2021/10/06 23:09:51;;;;;;;1.00;0.70;;;17.30;76.60;;;;;;10454508;28;20738;-70
2021/10/06 23:15:15;;;;;;;0.80;0.60;;;17.30;76.70;;;;;;10462232;28;20193;-71
2021/10/06 23:20:37;;;;;;;1.03;0.67;;;17.30;76.80;;;;;;10457300;28;20198;-70
2021/10/06 23:26:01;;;;;;;0.60;0.60;;;17.30;76.70;;;;;;10431253;28;20221;-70
2021/10/06 23:31:24;;;;;;;1.03;0.70;;;17.30;76.70;;;;;;10428704;28;20227;-70
2021/10/06 23:36:46;;;;;;;0.63;0.50;;;17.30;76.70;;;;;;10459225;28;20710;-70
2021/10/06 23:42:09;;;;;;;1.53;0.60;;;17.20;77.20;;;;;;10457880;28;20282;-70
2021/10/06 23:47:32;;;;;;;1.13;0.90;;;17.30;76.70;;;;;;10449051;28;20705;-70
2021/10/06 23:52:54;;;;;;;1.00;0.53;;;17.30;76.60;;;;;;10418893;28;20197;-70
2021/10/06 23:58:16;;;;;;;0.77;0.70;;;17.30;76.50;;;;;;10454866;28;20688;-70
